createdAt,value
2022-11-17T00:01:08.201Z,23.27
2022-11-17T00:03:18.792Z,8.52
2022-11-17T00:05:20.376Z,15.15
2022-11-17T00:07:22.030Z,7.38
2022-11-17T00:09:24.092Z,11.98
2022-11-17T00:11:25.597Z,9.45
2022-11-17T00:13:46.380Z,13.07
2022-11-17T00:15:48.020Z,10.55
2022-11-17T00:18:09.514Z,9.50
2022-11-17T00:20:29.659Z,6.05
2022-11-17T00:22:34.498Z,9.93
2022-11-17T00:24:36.152Z,8.88
2022-11-17T00:26:57.665Z,8.90
2022-11-17T00:29:04.641Z,9.15
2022-11-17T00:31:24.611Z,5.95
2022-11-17T00:33:44.546Z,10.02
2022-11-17T00:35:53.586Z,9.95
2022-11-17T00:38:13.857Z,6.85
2022-11-17T00:40:15.433Z,21.35
2022-11-17T00:42:16.992Z,11.30
2022-11-17T00:44:18.527Z,19.85
2022-11-17T00:46:20.069Z,17.80
2022-11-17T00:48:21.577Z,13.15
2022-11-17T00:50:24.192Z,13.00
2022-11-17T00:52:25.825Z,7.63
2022-11-17T00:54:27.322Z,12.50
2022-11-17T00:56:29.309Z,8.60
2022-11-17T00:58:30.810Z,6.03
2022-11-17T01:00:32.317Z,6.80
2022-11-17T01:02:33.828Z,6.38
2022-11-17T01:04:35.439Z,5.72
2022-11-17T01:06:39.910Z,8.20
2022-11-17T01:08:41.913Z,8.93
2022-11-17T01:10:43.426Z,9.80
2022-11-17T01:12:44.964Z,10.18
2022-11-17T01:14:46.812Z,7.90
2022-11-17T01:16:48.334Z,5.35
2022-11-17T01:18:51.365Z,6.72
2022-11-17T01:20:52.843Z,8.55
2022-11-17T01:22:55.080Z,6.53
2022-11-17T01:24:56.595Z,7.30
2022-11-17T01:26:58.224Z,8.18
2022-11-17T01:29:01.850Z,7.78
2022-11-17T01:31:07.113Z,7.40
2022-11-17T01:33:08.621Z,20.73
2022-11-17T01:35:10.268Z,14.88
2022-11-17T01:37:20.793Z,20.95
2022-11-17T01:39:24.200Z,19.60
2022-11-17T01:41:28.000Z,23.60
2022-11-17T01:43:37.933Z,26.88
2022-11-17T01:45:39.532Z,15.75
2022-11-17T01:47:57.615Z,16.50
2022-11-17T01:50:11.461Z,22.40
2022-11-17T01:52:13.540Z,6.10
2022-11-17T01:54:35.867Z,10.05
2022-11-17T01:56:42.186Z,8.82
2022-11-17T01:58:49.628Z,14.15
2022-11-17T02:00:52.567Z,9.80
2022-11-17T02:02:54.327Z,19.77
2022-11-17T02:05:10.406Z,6.85
2022-11-17T02:07:19.882Z,11.25
2022-11-17T02:09:22.280Z,9.85
2022-11-17T02:11:25.151Z,7.00
2022-11-17T02:13:27.723Z,11.25
2022-11-17T02:15:30.124Z,6.97
2022-11-17T02:17:40.410Z,6.30
2022-11-17T02:19:44.312Z,8.10
2022-11-17T02:21:57.923Z,11.60
2022-11-17T02:24:21.216Z,13.98
2022-11-17T02:26:41.701Z,11.50
2022-11-17T02:29:05.485Z,5.18
2022-11-17T02:31:09.857Z,7.13
2022-11-17T02:33:13.506Z,18.52
2022-11-17T02:35:23.643Z,8.40
2022-11-17T02:37:55.350Z,14.25
2022-11-17T02:40:01.120Z,11.00
2022-11-17T02:42:21.458Z,10.77
2022-11-17T02:44:40.041Z,9.15
2022-11-17T02:46:48.449Z,7.13
2022-11-17T02:48:55.148Z,8.13
2022-11-17T02:50:58.179Z,41.30
2022-11-17T02:52:59.697Z,6.38
2022-11-17T02:55:03.031Z,7.60
2022-11-17T02:57:04.539Z,7.95
2022-11-17T02:59:06.155Z,7.65
2022-11-17T03:01:27.506Z,11.05
2022-11-17T03:03:44.719Z,8.88
2022-11-17T03:06:04.578Z,10.88
2022-11-17T03:08:17.355Z,12.98
2022-11-17T03:10:57.084Z,7.32
2022-11-17T03:13:14.204Z,7.15
2022-11-17T03:15:21.456Z,7.43
2022-11-17T03:17:35.100Z,6.32
2022-11-17T03:19:43.991Z,7.65
2022-11-17T03:21:55.412Z,8.13
2022-11-17T03:24:09.243Z,4.68
2022-11-17T03:26:15.782Z,9.43
2022-11-17T03:28:21.484Z,5.97
2022-11-17T03:30:25.542Z,6.88
2022-11-17T03:32:30.929Z,6.90
2022-11-17T03:34:37.681Z,7.07
2022-11-17T03:36:42.178Z,6.93
2022-11-17T03:39:06.306Z,5.57
2022-11-17T03:41:10.331Z,5.18
2022-11-17T03:43:14.468Z,5.30
2022-11-17T03:45:21.610Z,8.20
2022-11-17T03:47:26.731Z,8.52
2022-11-17T03:49:47.396Z,7.45
2022-11-17T03:51:49.003Z,7.50
2022-11-17T03:53:51.341Z,7.60
2022-11-17T03:56:15.696Z,9.27
2022-11-17T03:58:21.996Z,12.80
2022-11-17T04:00:23.870Z,9.52
2022-11-17T04:02:26.754Z,6.88
2022-11-17T04:04:48.219Z,6.25
2022-11-17T04:06:55.549Z,3.47
2022-11-17T04:08:57.123Z,10.30
2022-11-17T04:11:17.296Z,7.65
2022-11-17T04:13:37.498Z,10.57
2022-11-17T04:15:58.981Z,10.55
2022-11-17T04:18:00.597Z,12.00
2022-11-17T04:20:02.067Z,9.68
2022-11-17T04:22:03.676Z,5.63
2022-11-17T04:24:05.530Z,7.57
2022-11-17T04:26:25.772Z,5.72
2022-11-17T04:28:37.730Z,4.53
2022-11-17T04:30:39.289Z,5.00
2022-11-17T04:32:40.843Z,6.15
2022-11-17T04:34:42.694Z,9.50
2022-11-17T04:36:44.148Z,4.63
2022-11-17T04:38:48.085Z,3.60
2022-11-17T04:41:08.375Z,2.88
2022-11-17T04:43:09.826Z,4.50
2022-11-17T04:45:11.278Z,6.60
2022-11-17T04:47:12.763Z,4.32
2022-11-17T04:49:15.914Z,5.05
2022-11-17T04:51:17.507Z,4.22
2022-11-17T04:53:19.004Z,2.95
2022-11-17T04:55:20.461Z,4.03
2022-11-17T04:57:21.982Z,5.95
2022-11-17T04:59:23.866Z,4.18
2022-11-17T05:01:27.019Z,3.38
2022-11-17T05:03:28.480Z,5.82
2022-11-17T05:05:29.942Z,6.45
2022-11-17T05:07:31.495Z,5.97
2022-11-17T05:09:33.206Z,5.72
2022-11-17T05:11:53.092Z,4.35
2022-11-17T05:13:54.822Z,4.88
2022-11-17T05:16:16.203Z,9.02
2022-11-17T05:18:17.644Z,5.90
2022-11-17T05:20:19.128Z,6.43
2022-11-17T05:22:41.805Z,8.00
2022-11-17T05:24:43.268Z,5.82
2022-11-17T05:26:47.313Z,4.68
2022-11-17T05:28:49.170Z,6.53
2022-11-17T05:30:50.623Z,5.28
2022-11-17T05:32:52.052Z,12.55
2022-11-17T05:34:53.523Z,7.72
2022-11-17T05:36:55.033Z,9.25
2022-11-17T05:38:56.832Z,8.48
2022-11-17T05:40:58.915Z,7.10
2022-11-17T05:43:00.450Z,9.80
2022-11-17T05:45:02.072Z,6.90
2022-11-17T05:47:03.577Z,9.80
2022-11-17T05:49:05.117Z,8.77
2022-11-17T05:51:06.851Z,8.55
2022-11-17T05:53:08.681Z,12.07
2022-11-17T05:55:10.165Z,9.35
2022-11-17T05:57:16.777Z,11.68
2022-11-17T05:59:35.807Z,9.75
2022-11-17T06:01:41.634Z,8.00
2022-11-17T06:03:47.835Z,10.80
2022-11-17T06:05:49.433Z,9.52
2022-11-17T06:07:54.795Z,7.93
2022-11-17T06:09:56.591Z,10.55
2022-11-17T06:12:02.556Z,8.07
2022-11-17T06:14:07.267Z,7.75
2022-11-17T06:16:12.211Z,8.27
2022-11-17T06:18:18.407Z,7.80
2022-11-17T06:20:23.618Z,9.40
2022-11-17T06:22:26.937Z,10.43
2022-11-17T06:24:28.741Z,19.52
2022-11-17T06:26:30.364Z,10.27
2022-11-17T06:28:33.068Z,11.52
2022-11-17T06:30:36.550Z,11.02
2022-11-17T06:32:39.860Z,8.60
2022-11-17T06:34:43.490Z,8.07
2022-11-17T06:36:44.938Z,9.80
2022-11-17T06:38:46.431Z,7.97
2022-11-17T06:40:47.883Z,13.55
2022-11-17T06:43:08.211Z,14.02
2022-11-17T06:45:11.114Z,12.68
2022-11-17T06:47:12.543Z,11.02
2022-11-17T06:49:14.011Z,7.85
2022-11-17T06:51:15.525Z,9.40
2022-11-17T06:53:17.047Z,13.77
2022-11-17T06:55:18.665Z,10.30
2022-11-17T06:57:20.108Z,10.88
2022-11-17T06:59:21.646Z,8.52
2022-11-17T07:01:23.277Z,9.63
2022-11-17T07:03:24.859Z,25.77
2022-11-17T07:05:27.709Z,7.22
2022-11-17T07:07:29.259Z,9.63
2022-11-17T07:09:30.923Z,21.45
2022-11-17T07:11:35.811Z,20.45
2022-11-17T07:14:00.767Z,17.25
2022-11-17T07:16:12.599Z,10.80
2022-11-17T07:18:23.505Z,8.95
2022-11-17T07:20:54.627Z,6.80
2022-11-17T07:23:00.156Z,14.40
2022-11-17T07:25:22.522Z,14.13
2022-11-17T07:27:24.273Z,10.73
2022-11-17T07:29:43.600Z,20.02
2022-11-17T07:31:57.003Z,12.25
2022-11-17T07:34:10.475Z,11.90
2022-11-17T07:36:30.125Z,12.93
2022-11-17T07:40:58.073Z,15.63
2022-11-17T07:43:12.514Z,15.07
2022-11-17T07:45:31.935Z,11.60
2022-11-17T07:47:43.205Z,7.90
2022-11-17T07:49:56.654Z,12.52
2022-11-17T07:52:13.610Z,13.68
2022-11-17T07:54:27.623Z,19.05
2022-11-17T07:56:42.229Z,14.30
2022-11-17T07:58:54.713Z,15.68
2022-11-17T08:00:56.213Z,20.08
2022-11-17T08:03:02.195Z,22.52
2022-11-17T08:05:03.827Z,22.40
2022-11-17T08:07:05.332Z,20.00
2022-11-17T08:09:07.310Z,16.02
2022-11-17T08:11:16.764Z,11.80
2022-11-17T08:13:18.205Z,17.13
2022-11-17T08:15:19.887Z,11.65
2022-11-17T08:17:21.404Z,19.63
2022-11-17T08:19:22.809Z,17.42
2022-11-17T08:21:30.579Z,13.70
2022-11-17T08:23:44.353Z,17.63
2022-11-17T08:26:02.202Z,20.73
2022-11-17T08:28:15.980Z,11.60
2022-11-17T08:30:30.464Z,19.92
2022-11-17T08:32:32.750Z,11.93
2022-11-17T08:34:34.274Z,162.32
2022-11-17T08:36:35.922Z,113.90
2022-11-17T08:38:37.700Z,15.50
2022-11-17T08:40:39.285Z,24.85
2022-11-17T08:43:00.307Z,38.10
2022-11-17T08:45:08.693Z,27.05
2022-11-17T08:47:25.237Z,30.65
2022-11-17T08:49:38.885Z,23.92
2022-11-17T08:51:55.714Z,16.20
2022-11-17T08:54:11.992Z,14.35
2022-11-17T08:56:25.509Z,11.55
2022-11-17T08:58:47.339Z,18.95
2022-11-17T09:00:52.822Z,19.52
2022-11-17T09:05:23.622Z,24.80
2022-11-17T09:07:35.718Z,21.95
2022-11-17T09:09:37.367Z,21.10
2022-11-17T09:11:38.908Z,14.60
2022-11-17T09:13:40.868Z,26.17
2022-11-17T09:15:42.502Z,17.05
2022-11-17T09:17:48.038Z,18.88
2022-11-17T09:20:05.077Z,16.50
2022-11-17T09:22:18.177Z,24.92
2022-11-17T09:24:20.055Z,24.95
2022-11-17T09:26:21.672Z,25.70
2022-11-17T09:28:26.166Z,41.67
2022-11-17T09:30:27.935Z,29.77
2022-11-17T09:32:29.498Z,22.92
2022-11-17T09:34:41.387Z,15.75
2022-11-17T09:36:56.329Z,22.40
2022-11-17T09:38:57.855Z,23.42
2022-11-17T09:41:00.984Z,29.08
2022-11-17T09:43:11.114Z,13.07
2022-11-17T09:45:20.964Z,19.75
2022-11-17T09:47:37.959Z,62.95
2022-11-17T09:50:03.687Z,20.17
2022-11-17T09:52:18.275Z,17.38
2022-11-17T09:55:00.693Z,30.55
2022-11-17T09:57:10.729Z,40.63
2022-11-17T09:59:15.460Z,37.22
2022-11-17T10:01:20.494Z,54.00
2022-11-17T10:03:43.617Z,12.18
2022-11-17T10:05:47.056Z,12.02
2022-11-17T10:07:52.181Z,10.63
2022-11-17T10:09:54.855Z,28.58
2022-11-17T10:12:13.468Z,16.15
2022-11-17T10:14:20.605Z,14.52
2022-11-17T10:16:22.234Z,16.17
2022-11-17T10:18:23.940Z,17.08
2022-11-17T10:20:25.588Z,19.73
2022-11-17T10:22:35.783Z,21.70
2022-11-17T10:24:42.423Z,14.65
2022-11-17T10:26:47.423Z,13.15
2022-11-17T10:29:08.527Z,13.93
2022-11-17T10:31:12.505Z,11.10
2022-11-17T10:33:18.128Z,15.38
2022-11-17T10:35:36.519Z,19.50
2022-11-17T10:37:53.586Z,25.30
2022-11-17T10:40:20.582Z,30.08
2022-11-17T10:42:30.094Z,27.33
2022-11-17T10:44:33.784Z,27.58
2022-11-17T10:47:02.276Z,25.27
2022-11-17T10:49:22.958Z,20.38
2022-11-17T10:51:26.605Z,20.75
2022-11-17T10:53:45.550Z,18.45
2022-11-17T10:55:55.149Z,24.48
2022-11-17T10:58:09.394Z,32.60
2022-11-17T11:00:24.011Z,19.83
2022-11-17T11:02:36.053Z,15.05
2022-11-17T11:04:45.304Z,20.27
2022-11-17T11:06:46.719Z,19.05
2022-11-17T11:08:56.745Z,16.20
2022-11-17T11:10:59.837Z,26.27
2022-11-17T11:13:30.489Z,19.45
2022-11-17T11:15:36.341Z,23.50
2022-11-17T11:17:37.810Z,32.58
2022-11-17T11:19:41.962Z,26.95
2022-11-17T11:21:51.617Z,14.68
2022-11-17T11:26:46.466Z,6.95
2022-11-17T11:28:56.884Z,38.70
2022-11-17T11:31:27.341Z,14.57
2022-11-17T11:33:40.403Z,13.68
2022-11-17T11:35:57.271Z,19.15
2022-11-17T11:38:04.678Z,14.70
2022-11-17T11:40:21.774Z,16.10
2022-11-17T11:42:52.946Z,16.17
2022-11-17T11:45:03.178Z,19.45
2022-11-17T11:47:20.096Z,18.45
2022-11-17T11:49:25.395Z,26.08
2022-11-17T11:51:37.209Z,37.40
2022-11-17T11:53:48.481Z,20.73
2022-11-17T11:56:00.780Z,16.58
2022-11-17T11:58:14.478Z,11.30
2022-11-17T12:00:17.605Z,12.55
2022-11-17T12:02:34.691Z,11.50
2022-11-17T12:04:57.978Z,13.68
2022-11-17T12:07:16.250Z,12.98
2022-11-17T12:09:46.504Z,11.20
2022-11-17T12:12:01.712Z,11.57
2022-11-17T12:14:05.907Z,9.57
2022-11-17T12:16:27.590Z,17.73
2022-11-17T12:18:33.475Z,15.77
2022-11-17T12:20:38.098Z,13.93
2022-11-17T12:22:54.414Z,11.65
2022-11-17T12:24:58.676Z,17.98
2022-11-17T12:27:42.708Z,16.25
2022-11-17T12:29:47.611Z,14.63
2022-11-17T12:31:57.685Z,14.60
2022-11-17T12:33:59.121Z,13.90
2022-11-17T12:36:31.136Z,24.17
2022-11-17T12:38:41.673Z,19.52
2022-11-17T12:40:50.977Z,17.45
2022-11-17T12:43:14.489Z,14.40
2022-11-17T12:45:16.009Z,9.25
2022-11-17T12:47:23.035Z,11.68
2022-11-17T12:50:07.714Z,11.43
2022-11-17T12:52:20.676Z,19.27
2022-11-17T12:54:27.918Z,13.73
2022-11-17T12:57:00.129Z,16.45
2022-11-17T12:59:47.152Z,25.02
2022-11-17T13:02:25.395Z,32.20
2022-11-17T13:04:47.894Z,15.80
2022-11-17T13:07:01.370Z,40.38
2022-11-17T13:09:06.445Z,43.13
2022-11-17T13:11:17.188Z,41.88
2022-11-17T13:13:24.839Z,40.63
2022-11-17T13:15:29.338Z,28.73
2022-11-17T13:17:59.915Z,33.08
2022-11-17T13:20:23.296Z,23.65
2022-11-17T13:22:24.791Z,40.05
2022-11-17T13:24:31.815Z,33.00
2022-11-17T13:27:01.738Z,39.88
2022-11-17T13:29:19.267Z,26.90
2022-11-17T13:31:23.945Z,29.05
2022-11-17T13:33:27.282Z,27.67
2022-11-17T13:35:32.210Z,29.60
2022-11-17T13:37:33.741Z,26.83
2022-11-17T13:39:35.557Z,30.38
2022-11-17T13:41:40.038Z,12.95
2022-11-17T13:43:41.928Z,24.85
2022-11-17T13:45:45.715Z,52.72
2022-11-17T13:47:49.481Z,35.30
2022-11-17T13:49:50.931Z,40.97
2022-11-17T13:51:52.637Z,37.95
2022-11-17T13:53:56.947Z,25.73
2022-11-17T13:55:58.445Z,23.70
2022-11-17T13:58:07.646Z,41.08
2022-11-17T14:00:16.942Z,33.40
2022-11-17T14:02:21.172Z,42.80
2022-11-17T14:04:24.232Z,20.85
2022-11-17T14:06:25.931Z,29.25
2022-11-17T14:08:30.740Z,31.33
2022-11-17T14:10:35.280Z,19.13
2022-11-17T14:12:36.993Z,23.38
2022-11-17T14:14:38.395Z,36.63
2022-11-17T14:16:41.353Z,28.40
2022-11-17T14:18:42.848Z,20.75
2022-11-17T14:20:44.318Z,17.63
2022-11-17T14:23:16.042Z,13.90
2022-11-17T14:25:17.474Z,22.35
2022-11-17T14:27:31.913Z,35.45
2022-11-17T14:29:33.398Z,17.90
2022-11-17T14:31:34.922Z,72.72
2022-11-17T14:33:36.563Z,29.92
2022-11-17T14:35:38.194Z,27.27
2022-11-17T14:37:39.674Z,40.58
2022-11-17T14:39:41.164Z,27.55
2022-11-17T14:41:44.277Z,27.45
2022-11-17T14:43:46.725Z,29.83
2022-11-17T14:45:49.467Z,37.35
2022-11-17T14:47:50.907Z,14.55
2022-11-17T14:49:52.388Z,34.35
2022-11-17T14:51:55.382Z,18.60
2022-11-17T14:53:56.837Z,25.77
2022-11-17T14:55:58.311Z,22.13
2022-11-17T14:57:59.802Z,19.92
2022-11-17T15:00:01.355Z,19.70
2022-11-17T15:02:02.889Z,22.10
2022-11-17T15:04:27.141Z,24.40
2022-11-17T15:06:29.370Z,25.70
2022-11-17T15:08:30.810Z,27.48
2022-11-17T15:10:32.263Z,24.52
2022-11-17T15:12:33.848Z,36.65
2022-11-17T15:14:35.640Z,19.42
2022-11-17T15:16:37.120Z,15.13
2022-11-17T15:18:38.734Z,16.50
2022-11-17T15:20:40.311Z,17.27
2022-11-17T15:22:41.746Z,46.63
2022-11-17T15:24:43.345Z,36.47
2022-11-17T15:26:44.803Z,21.75
2022-11-17T15:28:46.542Z,55.80
2022-11-17T15:30:48.003Z,82.97
2022-11-17T15:32:49.568Z,27.38
2022-11-17T15:34:51.039Z,61.78
2022-11-17T15:36:52.729Z,27.85
2022-11-17T15:38:54.242Z,24.65
2022-11-17T15:40:57.338Z,42.63
2022-11-17T15:42:59.094Z,33.20
2022-11-17T15:45:00.640Z,40.28
2022-11-17T15:47:02.067Z,31.15
2022-11-17T15:49:03.590Z,30.33
2022-11-17T15:51:05.764Z,43.60
2022-11-17T15:53:07.188Z,43.55
2022-11-17T15:55:08.852Z,39.75
2022-11-17T15:57:10.315Z,61.95
2022-11-17T15:59:11.851Z,55.25
2022-11-17T16:01:34.410Z,36.90
2022-11-17T16:03:36.051Z,31.60
2022-11-17T16:05:37.484Z,33.50
2022-11-17T16:07:39.896Z,30.70
2022-11-17T16:09:42.990Z,31.52
2022-11-17T16:11:45.583Z,42.13
2022-11-17T16:13:47.333Z,86.50
2022-11-17T16:15:50.099Z,40.85
2022-11-17T16:17:51.564Z,39.17
2022-11-17T16:19:53.104Z,35.28
2022-11-17T16:21:54.635Z,30.33
2022-11-17T16:23:57.518Z,35.45
2022-11-17T16:25:59.080Z,25.38
2022-11-17T16:28:00.529Z,29.52
2022-11-17T16:30:02.006Z,23.45
2022-11-17T16:32:03.525Z,26.95
2022-11-17T16:34:13.258Z,62.95
2022-11-17T16:36:15.541Z,39.65
2022-11-17T16:38:17.613Z,25.17
2022-11-17T16:40:19.622Z,25.27
2022-11-17T16:42:21.101Z,18.85
2022-11-17T16:44:22.674Z,60.28
2022-11-17T16:46:29.403Z,26.90
2022-11-17T16:48:33.610Z,32.47
2022-11-17T16:50:39.664Z,55.95
2022-11-17T16:52:41.143Z,52.17
2022-11-17T16:54:42.598Z,37.88
2022-11-17T16:56:44.145Z,38.17
2022-11-17T16:58:48.720Z,43.15
2022-11-17T17:00:50.185Z,34.08
2022-11-17T17:02:51.693Z,41.50
2022-11-17T17:04:53.210Z,28.83
2022-11-17T17:06:54.879Z,20.77
2022-11-17T17:09:02.945Z,28.10
2022-11-17T17:11:06.973Z,25.48
2022-11-17T17:13:08.494Z,105.13
2022-11-17T17:15:10.183Z,59.67
2022-11-17T17:17:11.628Z,36.10
2022-11-17T17:19:14.968Z,56.65
2022-11-17T17:21:18.725Z,133.70
2022-11-17T17:23:20.192Z,212.63
2022-11-17T17:25:21.657Z,53.55
2022-11-17T17:27:23.149Z,105.13
2022-11-17T17:29:24.594Z,147.02
2022-11-17T17:31:31.206Z,46.05
2022-11-17T17:33:34.493Z,36.20
2022-11-17T17:35:36.014Z,63.83
2022-11-17T17:37:37.493Z,78.65
2022-11-17T17:39:38.978Z,105.07
2022-11-17T17:41:41.112Z,168.15
2022-11-17T17:43:43.825Z,74.72
2022-11-17T17:45:45.336Z,122.88
2022-11-17T17:47:46.824Z,36.92
2022-11-17T17:49:48.242Z,85.80
2022-11-17T17:51:49.697Z,100.78
2022-11-17T17:53:55.980Z,57.58
2022-11-17T17:56:01.702Z,32.42
2022-11-17T17:58:03.105Z,104.55
2022-11-17T18:00:04.994Z,100.38
2022-11-17T18:02:06.618Z,95.80
2022-11-17T18:04:15.291Z,117.78
2022-11-17T18:06:21.004Z,28.35
2022-11-17T18:08:22.481Z,79.35
2022-11-17T18:10:23.986Z,55.13
2022-11-17T18:12:25.436Z,68.45
2022-11-17T18:14:26.990Z,49.30
2022-11-17T18:16:33.296Z,69.05
2022-11-17T18:18:36.321Z,55.10
2022-11-17T18:20:38.125Z,44.35
2022-11-17T18:22:39.616Z,53.55
2022-11-17T18:24:41.039Z,61.67
2022-11-17T18:26:42.526Z,46.13
2022-11-17T18:28:49.926Z,19.42
2022-11-17T18:30:51.398Z,29.38
2022-11-17T18:32:52.816Z,86.05
2022-11-17T18:34:54.306Z,49.90
2022-11-17T18:36:56.052Z,23.27
2022-11-17T18:38:58.736Z,30.50
2022-11-17T18:41:08.217Z,22.17
2022-11-17T18:43:09.665Z,16.55
2022-11-17T18:45:11.131Z,12.35
2022-11-17T18:47:13.733Z,18.90
2022-11-17T18:49:15.538Z,28.00
2022-11-17T18:51:22.031Z,27.77
2022-11-17T18:53:23.446Z,83.50
2022-11-17T18:55:24.942Z,42.60
2022-11-17T18:57:26.690Z,34.38
2022-11-17T18:59:28.198Z,48.53
2022-11-17T19:01:30.586Z,53.75
2022-11-17T19:03:32.315Z,18.27
2022-11-17T19:05:34.749Z,28.85
2022-11-17T19:07:36.414Z,31.00
2022-11-17T19:09:37.958Z,61.95
2022-11-17T19:11:39.516Z,38.20
2022-11-17T19:13:42.151Z,22.13
2022-11-17T19:15:43.567Z,20.40
2022-11-17T19:17:44.982Z,27.98
2022-11-17T19:19:46.512Z,89.30
2022-11-17T19:21:47.931Z,36.45
2022-11-17T19:23:52.182Z,22.88
2022-11-17T19:25:53.896Z,23.00
2022-11-17T19:27:55.341Z,31.23
2022-11-17T19:29:56.813Z,55.38
2022-11-17T19:31:58.290Z,35.63
2022-11-17T19:34:00.161Z,28.77
2022-11-17T19:36:13.835Z,26.77
2022-11-17T19:38:15.394Z,35.45
2022-11-17T19:40:17.102Z,28.80
2022-11-17T19:42:18.545Z,36.65
2022-11-17T19:44:20.098Z,21.23
2022-11-17T19:46:22.396Z,17.70
2022-11-17T19:48:23.802Z,20.27
2022-11-17T19:50:25.523Z,20.80
2022-11-17T19:52:27.234Z,24.10
2022-11-17T19:54:29.415Z,16.40
2022-11-17T19:56:31.184Z,40.13
2022-11-17T19:58:32.763Z,28.48
2022-11-17T20:00:34.186Z,20.38
2022-11-17T20:02:36.335Z,25.42
2022-11-17T20:04:38.613Z,28.60
2022-11-17T20:06:40.926Z,26.20
2022-11-17T20:08:42.530Z,21.27
2022-11-17T20:10:44.014Z,18.60
2022-11-17T20:12:46.422Z,22.50
2022-11-17T20:14:47.869Z,24.83
2022-11-17T20:16:49.299Z,26.08
2022-11-17T20:18:53.355Z,29.35
2022-11-17T20:20:54.861Z,22.98
2022-11-17T20:22:56.381Z,18.13
2022-11-17T20:25:03.060Z,27.58
2022-11-17T20:27:04.973Z,24.75
2022-11-17T20:29:07.130Z,21.05
2022-11-17T20:31:10.579Z,23.88
2022-11-17T20:33:12.064Z,27.50
2022-11-17T20:35:13.565Z,24.05
2022-11-17T20:37:15.116Z,28.90
2022-11-17T20:39:16.673Z,30.30
2022-11-17T20:41:20.807Z,33.90
2022-11-17T20:43:22.300Z,55.30
2022-11-17T20:45:24.876Z,27.92
2022-11-17T20:47:27.568Z,26.38
2022-11-17T20:49:29.401Z,32.13
2022-11-17T20:51:30.874Z,24.70
2022-11-17T20:53:33.044Z,37.28
2022-11-17T20:55:34.656Z,50.15
2022-11-17T20:57:36.114Z,38.83
2022-11-17T20:59:37.587Z,36.45
2022-11-17T21:01:39.229Z,47.72
2022-11-17T21:03:41.334Z,41.30
2022-11-17T21:05:43.089Z,39.30
2022-11-17T21:07:44.576Z,27.77
2022-11-17T21:09:46.072Z,32.70
2022-11-17T21:11:59.174Z,39.78
2022-11-17T21:14:00.943Z,43.50
2022-11-17T21:16:14.395Z,52.90
2022-11-17T21:18:25.044Z,51.25
2022-11-17T21:20:28.292Z,33.63
2022-11-17T21:22:29.734Z,42.17
2022-11-17T21:24:31.273Z,47.17
2022-11-17T21:26:33.424Z,24.58
2022-11-17T21:28:38.392Z,31.50
2022-11-17T21:30:39.824Z,33.08
2022-11-17T21:32:41.255Z,27.40
2022-11-17T21:34:47.014Z,28.60
2022-11-17T21:36:51.046Z,19.65
2022-11-17T21:38:53.538Z,31.25
2022-11-17T21:40:55.104Z,21.58
2022-11-17T21:42:56.573Z,25.88
2022-11-17T21:44:57.993Z,23.85
2022-11-17T21:46:59.449Z,30.80
2022-11-17T21:49:01.675Z,34.17
2022-11-17T21:51:04.825Z,34.97
2022-11-17T21:53:07.009Z,31.52
2022-11-17T21:55:09.049Z,23.98
2022-11-17T21:57:10.499Z,30.02
2022-11-17T21:59:13.227Z,47.35
2022-11-17T22:01:15.873Z,51.58
2022-11-17T22:03:17.445Z,30.98
2022-11-17T22:05:18.928Z,33.90
2022-11-17T22:07:20.407Z,38.33
2022-11-17T22:09:22.211Z,30.00
2022-11-17T22:11:36.065Z,26.38
2022-11-17T22:13:38.378Z,33.08
2022-11-17T22:15:39.828Z,42.80
2022-11-17T22:17:41.291Z,44.95
2022-11-17T22:19:42.718Z,29.35
2022-11-17T22:21:45.225Z,29.52
2022-11-17T22:23:46.642Z,24.50
2022-11-17T22:26:01.924Z,51.72
2022-11-17T22:28:03.416Z,115.32
2022-11-17T22:30:05.425Z,17.70
2022-11-17T22:32:06.891Z,22.33
2022-11-17T22:34:08.671Z,21.23
2022-11-17T22:36:10.252Z,22.13
2022-11-17T22:38:12.874Z,26.35
2022-11-17T22:40:14.364Z,47.88
2022-11-17T22:42:18.701Z,34.72
2022-11-17T22:44:20.392Z,23.73
2022-11-17T22:46:24.082Z,42.58
2022-11-17T22:48:25.604Z,35.03
2022-11-17T22:50:27.032Z,40.35
2022-11-17T22:52:28.494Z,38.55
2022-11-17T22:54:30.576Z,33.40
2022-11-17T22:56:32.517Z,30.50
2022-11-17T22:58:34.406Z,39.95
2022-11-17T23:00:37.340Z,44.92
2022-11-17T23:02:38.803Z,17.23
2022-11-17T23:04:40.384Z,25.20
2022-11-17T23:06:42.506Z,33.45
2022-11-17T23:08:43.986Z,26.80
2022-11-17T23:10:45.541Z,32.72
2022-11-17T23:12:47.027Z,41.10
2022-11-17T23:14:48.496Z,38.78
2022-11-17T23:16:50.007Z,46.42
2022-11-17T23:18:55.938Z,28.02
2022-11-17T23:20:57.536Z,36.78
2022-11-17T23:22:58.984Z,26.00
2022-11-17T23:25:00.542Z,29.33
2022-11-17T23:27:01.944Z,34.90
2022-11-17T23:29:03.400Z,41.75
2022-11-17T23:31:07.262Z,47.13
2022-11-17T23:33:08.668Z,22.55
2022-11-17T23:35:10.151Z,36.55
2022-11-17T23:37:12.453Z,27.77
2022-11-17T23:39:14.230Z,41.65
2022-11-17T23:41:19.158Z,26.60
2022-11-17T23:43:20.677Z,32.65
2022-11-17T23:45:22.137Z,30.45
2022-11-17T23:47:23.552Z,31.23
2022-11-17T23:49:25.231Z,18.67
2022-11-17T23:51:28.742Z,17.80
2022-11-17T23:53:30.157Z,23.23
2022-11-17T23:55:31.611Z,20.63
2022-11-17T23:57:33.029Z,20.48
2022-11-17T23:59:34.510Z,17.42
